• Join FlightAware (Why Join?)
  • Login
  • US Flag GB Flag 
22:57 EST


 

Airport Tracker/Info


-or-


 

Live Flight TrackerFlight Track Log ✈ UAL4663 ✈ 14-Apr-2013 ✈ KEWR - KRDU

Flight Track Log - Related Links

Times and Time Zones

All times are in EDT time to prevent confusion due to time zone crossing. See the UAL4663 flight status page for this flight to view local times or setup timezone preferences in your user account.

Time Position Orientation Groundspeed Altitude Reporting Facility
EDT Latitude Longitude Course Direction KTS MPH feet Rate Location/Type
18:40 40.7167 -74.1500 180° South 168 193 1,400  Level New York TRACON
18:41 40.7667 -74.1167 27° Northeast 228 262 2,900 1,800 Climbing New York TRACON
18:42 40.8167 -74.1000 14° North 251 289 5,000 1,550 Climbing New York TRACON
18:43 40.8500 -74.1833 298° West 238 274 6,000 950 Climbing New York TRACON
18:44 40.2127 -74.1791 194° South  Level FlightAware Approximate
18:44 40.8000 -74.2167 207° Southwest 259 298 6,900  Level New York TRACON
18:45 40.1145 -74.2167 180° South  Level FlightAware Approximate
18:45 40.7167 -74.2333 189° South 295 339 8,100  Level New York TRACON
18:47 40.5400 -74.2339 180° South 321 369 11,800 1,596 Climbing New York Center
18:48 40.4472 -74.2044 166° South 365 420 13,100 1,587 Climbing New York Center
18:49 40.3356 -74.1744 168° South 379 436 15,000 1,729 Climbing New York Center
18:50 40.2369 -74.1886 186° South 361 415 16,500 1,361 Climbing New York Center
18:51 40.1664 -74.2503 214° Southwest 348 400 17,700 1,091 Climbing New York Center
18:52 40.0806 -74.3356 217° Southwest 351 404 18,700 950 Climbing New York Center
18:53 40.0033 -74.4103 217° Southwest 351 404 19,600 990 Climbing New York Center
18:56 39.8197 -74.5947 218° Southwest 358 412 21,900 1,021 Climbing Washington Center
18:57 39.7350 -74.6794 218° Southwest 378 435 22,900 1,050 Climbing Washington Center
18:58 39.6503 -74.7669 219° Southwest 390 449 24,000 1,100 Climbing Washington Center
18:59 39.5653 -74.8514 217° Southwest 390 449 25,100 950 Climbing Washington Center
19:00 39.4825 -74.9300 216° Southwest 390 449 25,900 450 Climbing Washington Center
19:01 39.3953 -75.0169 218° Southwest 390 449 26,000 50 Climbing Washington Center
19:02 39.3083 -75.1061 218° Southwest 395 455 26,000  Level Washington Center
19:03 39.2253 -75.2083 224° Southwest 401 461 26,000  Level Washington Center
19:04 39.1486 -75.3106 226° Southwest 406 467 26,000  Level Washington Center
19:05 39.0653 -75.4178 225° Southwest 412 474 26,000  Level Washington Center
19:06 38.9819 -75.5247 225° Southwest 412 474 26,000  Level Washington Center
19:07 38.9028 -75.6342 227° Southwest 412 474 26,000  Level Washington Center
19:08 38.8528 -75.7675 244° Southwest 417 480 26,000  Level Washington Center
19:09 38.8003 -75.8981 243° Southwest 417 480 26,000  Level Washington Center
19:10 38.7186 -76.0014 225° Southwest 412 474 26,000  Level Washington Center
19:11 38.6225 -76.0914 216° Southwest 417 480 26,000  Level Washington Center
19:12 38.5389 -76.1703 216° Southwest 430 495 26,000  Level Washington Center
19:13 38.4383 -76.2544 213° Southwest 430 495 26,000  Level Washington Center
19:14 38.3378 -76.3356 212° Southwest 430 495 26,000  Level Washington Center
19:15 38.2350 -76.4111 210° Southwest 435 501 26,000  Level Washington Center
19:16 38.1322 -76.4919 212° Southwest 435 501 26,000  Level Washington Center
19:17 38.0231 -76.5803 213° Southwest 435 501 26,000  Level Washington Center
19:18 37.9244 -76.6553 211° Southwest 435 501 26,000 -400 Level Washington Center
19:19 37.8236 -76.7328 211° Southwest 430 495 25,200 -900 Descending Washington Center
19:20 37.7228 -76.8125 212° Southwest 430 495 24,200 -1,000 Descending Washington Center
19:21 37.6261 -76.8872 211° Southwest 430 495 23,200 -950 Descending Washington Center
19:22 37.5314 -76.9614 212° Southwest 423 487 22,300 -600 Descending Washington Center
19:23 37.4367 -77.0356 212° Southwest 411 473 22,000 -150 Descending Washington Center
19:24 37.3525 -77.0994 211° Southwest 405 466 22,000 -250 Level Washington Center
19:25 37.2536 -77.1678 209° Southwest 405 466 21,500 -750 Descending Washington Center
19:26 37.1608 -77.2311 209° Southwest 405 466 20,500 -750 Descending Washington Center
19:27 37.0661 -77.2994 210° Southwest 400 460 20,000 -250 Descending Washington Center
19:28 36.9733 -77.3675 210° Southwest 400 460 20,000  Level Washington Center
19:29 36.8803 -77.4406 212° Southwest 400 460 20,000  Level Washington Center
19:30 36.7856 -77.5083 210° Southwest 400 460 20,000  Level Washington Center
19:31 36.6947 -77.5761 211° Southwest 400 460 20,000  Level Washington Center
19:32 36.5994 -77.6489 212° Southwest 400 460 20,000  Level Washington Center
19:33 36.5106 -77.7214 213° Southwest 400 460 20,000 -950 Level Washington Center
19:34 36.4381 -77.8150 226° Southwest 394 453 18,100 -2,100 Descending Washington Center
19:35 36.3608 -77.9186 227° Southwest 379 436 15,800 -2,040 Descending Washington Center
19:35 36.3117 -77.9814 226° Southwest 373 429 14,700 -1,700 Descending Washington Center
19:36 36.2903 -78.0117 229° Southwest 374 430 14,100 -1,672 Descending Washington Center
19:36 36.2492 -78.0775 232° Southwest 356 410 13,000 -1,800 Descending Washington Center
19:37 36.2339 -78.1106 240° Southwest 369 425 12,300 -1,747 Descending Washington Center
19:38 36.1858 -78.2144 240° Southwest 357 411 10,700 -1,412 Descending Washington Center
19:38 36.1553 -78.2778 239° Southwest 299 344 9,900 -1,100 Descending Washington Center
19:39 36.1442 -78.3006 239° Southwest 322 371 9,600 -1,500 Descending Washington Center
19:39 36.1158 -78.3611 240° Southwest 262 302 8,400 -1,700 Descending Washington Center
19:40 36.1089 -78.3814 247° West 279 321 7,900 -1,475 Descending Washington Center
19:40 36.0806 -78.4369 238° Southwest 255 293 6,900 -1,300 Descending Washington Center
19:41 36.0717 -78.4597 244° Southwest 269 310 6,600 -1,254 Descending Washington Center
19:41 36.0433 -78.5153 238° Southwest 248 285 5,500 -1,309 Descending Washington Center
19:42 36.0122 -78.5886 242° Southwest 245 282 4,200 -1,304 Descending Washington Center
19:43 35.9833 -78.6594 243° Southwest 240 276 3,000 -1,309 Descending Washington Center